Holzdorf Airport ETSH

Flugplatz Daten

Name: Holzdorf Airport

Ident: ETSH

Lat: 51,76779938

Long: 13,16769981

Platzhöhe: 265 ft

IataCode:

City:

Metar

2021/10/25 23:20
ETSH 252320Z VRB02KT 9999 BKN150 BKN270 03/02 Q1019 BLU

Taf

2019/06/12 13:31
TAF ETSH 121324Z 1213/1313 15010KT 9999 NSW FEW070
BECMG 1214/1216 26008G18KT 9999 NSW BKN050
TEMPO 1214/1217 27015G35KT 2000 TSRA BKN010 BKN050CB PROB30 1217/1223 27020G45KT 1000 TSRAGR BKN005 BKN040CB
Gewünschte Webcam nicht vorhanden? Dann fügen Sie eine hinzu. Sie wird dann so schnell wie möglich freigeschaltet
Url: Title: